sensor_id;sensor_type;location;lat;lon;timestamp;P1;durP1;ratioP1;P2;durP2;ratioP2
75716;SDS011;64333;50.138;14.332;2023-03-21T00:00:55;6.22;;;4.95;;
75716;SDS011;64333;50.138;14.332;2023-03-21T00:03:21;8.65;;;6.03;;
75716;SDS011;64333;50.138;14.332;2023-03-21T00:05:46;7.83;;;5.13;;
75716;SDS011;64333;50.138;14.332;2023-03-21T00:08:15;10.27;;;5.00;;
75716;SDS011;64333;50.138;14.332;2023-03-21T00:10:40;7.70;;;4.67;;
75716;SDS011;64333;50.138;14.332;2023-03-21T00:13:06;7.43;;;4.63;;
75716;SDS011;64333;50.138;14.332;2023-03-21T00:15:31;7.63;;;5.40;;
75716;SDS011;64333;50.138;14.332;2023-03-21T00:17:56;9.75;;;5.93;;
75716;SDS011;64333;50.138;14.332;2023-03-21T00:20:31;8.25;;;5.00;;
75716;SDS011;64333;50.138;14.332;2023-03-21T00:22:58;8.07;;;5.95;;
75716;SDS011;64333;50.138;14.332;2023-03-21T00:25:23;9.43;;;6.00;;
75716;SDS011;64333;50.138;14.332;2023-03-21T00:27:49;9.85;;;5.25;;
75716;SDS011;64333;50.138;14.332;2023-03-21T00:30:14;9.77;;;6.15;;
75716;SDS011;64333;50.138;14.332;2023-03-21T00:32:40;8.25;;;5.30;;
75716;SDS011;64333;50.138;14.332;2023-03-21T00:35:06;11.38;;;6.38;;
75716;SDS011;64333;50.138;14.332;2023-03-21T00:37:31;9.40;;;5.63;;
75716;SDS011;64333;50.138;14.332;2023-03-21T00:39:56;10.52;;;6.53;;
75716;SDS011;64333;50.138;14.332;2023-03-21T00:42:21;10.67;;;6.20;;
75716;SDS011;64333;50.138;14.332;2023-03-21T00:44:46;10.77;;;6.10;;
75716;SDS011;64333;50.138;14.332;2023-03-21T00:47:12;11.17;;;6.03;;
75716;SDS011;64333;50.138;14.332;2023-03-21T00:49:37;10.20;;;6.50;;
75716;SDS011;64333;50.138;14.332;2023-03-21T00:52:04;7.97;;;5.57;;
75716;SDS011;64333;50.138;14.332;2023-03-21T00:54:31;11.07;;;6.47;;
75716;SDS011;64333;50.138;14.332;2023-03-21T00:56:56;11.48;;;6.10;;
75716;SDS011;64333;50.138;14.332;2023-03-21T00:59:21;10.47;;;5.80;;
75716;SDS011;64333;50.138;14.332;2023-03-21T01:01:46;10.67;;;6.53;;
75716;SDS011;64333;50.138;14.332;2023-03-21T01:04:12;10.43;;;6.07;;
75716;SDS011;64333;50.138;14.332;2023-03-21T01:06:40;11.77;;;6.50;;
75716;SDS011;64333;50.138;14.332;2023-03-21T01:09:06;11.25;;;6.78;;
75716;SDS011;64333;50.138;14.332;2023-03-21T01:11:32;11.15;;;6.40;;
75716;SDS011;64333;50.138;14.332;2023-03-21T01:13:57;11.52;;;6.40;;
75716;SDS011;64333;50.138;14.332;2023-03-21T01:16:23;10.48;;;6.20;;
75716;SDS011;64333;50.138;14.332;2023-03-21T01:18:48;10.70;;;5.95;;
75716;SDS011;64333;50.138;14.332;2023-03-21T01:21:13;9.97;;;6.13;;
75716;SDS011;64333;50.138;14.332;2023-03-21T01:23:39;10.95;;;5.90;;
75716;SDS011;64333;50.138;14.332;2023-03-21T01:26:05;10.23;;;5.32;;
75716;SDS011;64333;50.138;14.332;2023-03-21T01:28:31;9.73;;;5.88;;
75716;SDS011;64333;50.138;14.332;2023-03-21T01:30:58;8.57;;;6.10;;
75716;SDS011;64333;50.138;14.332;2023-03-21T01:33:24;10.00;;;5.68;;
75716;SDS011;64333;50.138;14.332;2023-03-21T01:35:49;11.30;;;6.47;;
75716;SDS011;64333;50.138;14.332;2023-03-21T01:38:15;9.57;;;5.80;;
75716;SDS011;64333;50.138;14.332;2023-03-21T01:40:40;10.30;;;6.53;;
75716;SDS011;64333;50.138;14.332;2023-03-21T01:43:14;8.70;;;5.53;;
75716;SDS011;64333;50.138;14.332;2023-03-21T01:48:23;11.98;;;6.47;;
75716;SDS011;64333;50.138;14.332;2023-03-21T01:50:50;15.60;;;6.88;;
75716;SDS011;64333;50.138;14.332;2023-03-21T01:53:15;10.05;;;6.43;;
75716;SDS011;64333;50.138;14.332;2023-03-21T01:55:43;10.68;;;6.32;;
75716;SDS011;64333;50.138;14.332;2023-03-21T01:58:11;10.63;;;6.53;;
75716;SDS011;64333;50.138;14.332;2023-03-21T02:00:38;11.68;;;7.10;;
75716;SDS011;64333;50.138;14.332;2023-03-21T02:03:06;11.52;;;6.30;;
75716;SDS011;64333;50.138;14.332;2023-03-21T02:08:03;10.68;;;6.88;;
75716;SDS011;64333;50.138;14.332;2023-03-21T02:10:29;10.80;;;6.47;;
75716;SDS011;64333;50.138;14.332;2023-03-21T02:12:55;12.10;;;7.82;;
75716;SDS011;64333;50.138;14.332;2023-03-21T02:15:22;10.68;;;6.43;;
75716;SDS011;64333;50.138;14.332;2023-03-21T02:17:51;11.38;;;6.53;;
75716;SDS011;64333;50.138;14.332;2023-03-21T02:35:41;12.33;;;7.50;;
75716;SDS011;64333;50.138;14.332;2023-03-21T02:41:04;12.95;;;7.15;;
75716;SDS011;64333;50.138;14.332;2023-03-21T02:43:32;13.30;;;7.47;;
75716;SDS011;64333;50.138;14.332;2023-03-21T02:46:17;10.85;;;6.53;;
75716;SDS011;64333;50.138;14.332;2023-03-21T02:48:50;13.18;;;7.00;;
75716;SDS011;64333;50.138;14.332;2023-03-21T02:51:17;15.98;;;8.07;;
75716;SDS011;64333;50.138;14.332;2023-03-21T02:53:43;13.30;;;7.20;;
75716;SDS011;64333;50.138;14.332;2023-03-21T02:56:10;14.32;;;8.00;;
75716;SDS011;64333;50.138;14.332;2023-03-21T02:58:35;11.32;;;7.53;;
75716;SDS011;64333;50.138;14.332;2023-03-21T03:01:02;16.08;;;8.15;;
75716;SDS011;64333;50.138;14.332;2023-03-21T03:03:27;13.95;;;7.20;;
75716;SDS011;64333;50.138;14.332;2023-03-21T03:05:54;12.27;;;7.63;;
75716;SDS011;64333;50.138;14.332;2023-03-21T03:13:24;11.73;;;7.40;;
75716;SDS011;64333;50.138;14.332;2023-03-21T03:18:38;14.13;;;7.75;;
75716;SDS011;64333;50.138;14.332;2023-03-21T03:26:01;14.88;;;7.03;;
75716;SDS011;64333;50.138;14.332;2023-03-21T03:28:29;15.05;;;7.88;;
75716;SDS011;64333;50.138;14.332;2023-03-21T03:30:55;15.20;;;8.23;;
75716;SDS011;64333;50.138;14.332;2023-03-21T03:33:22;12.80;;;7.80;;
75716;SDS011;64333;50.138;14.332;2023-03-21T03:35:48;12.27;;;7.38;;
75716;SDS011;64333;50.138;14.332;2023-03-21T03:38:14;12.35;;;7.50;;
75716;SDS011;64333;50.138;14.332;2023-03-21T03:40:40;15.57;;;8.05;;
75716;SDS011;64333;50.138;14.332;2023-03-21T03:43:09;14.35;;;8.05;;
75716;SDS011;64333;50.138;14.332;2023-03-21T03:45:39;13.35;;;7.25;;
75716;SDS011;64333;50.138;14.332;2023-03-21T03:48:12;13.07;;;7.10;;
75716;SDS011;64333;50.138;14.332;2023-03-21T03:53:59;13.23;;;8.03;;
75716;SDS011;64333;50.138;14.332;2023-03-21T03:56:06;14.75;;;8.30;;
75716;SDS011;64333;50.138;14.332;2023-03-21T03:58:31;13.70;;;7.70;;
75716;SDS011;64333;50.138;14.332;2023-03-21T04:00:59;12.68;;;7.47;;
75716;SDS011;64333;50.138;14.332;2023-03-21T04:03:24;14.13;;;7.72;;
75716;SDS011;64333;50.138;14.332;2023-03-21T04:05:50;14.32;;;7.88;;
75716;SDS011;64333;50.138;14.332;2023-03-21T04:08:15;13.53;;;7.10;;
75716;SDS011;64333;50.138;14.332;2023-03-21T04:10:41;15.75;;;8.20;;
75716;SDS011;64333;50.138;14.332;2023-03-21T04:13:07;13.23;;;7.53;;
75716;SDS011;64333;50.138;14.332;2023-03-21T04:15:32;13.07;;;6.90;;
75716;SDS011;64333;50.138;14.332;2023-03-21T04:17:58;13.97;;;7.87;;
75716;SDS011;64333;50.138;14.332;2023-03-21T04:20:23;14.37;;;7.50;;
75716;SDS011;64333;50.138;14.332;2023-03-21T04:22:48;14.77;;;7.82;;
75716;SDS011;64333;50.138;14.332;2023-03-21T04:25:15;12.23;;;7.25;;
75716;SDS011;64333;50.138;14.332;2023-03-21T04:27:40;12.27;;;6.53;;
75716;SDS011;64333;50.138;14.332;2023-03-21T04:30:05;14.13;;;7.67;;
75716;SDS011;64333;50.138;14.332;2023-03-21T04:32:31;14.43;;;7.95;;
75716;SDS011;64333;50.138;14.332;2023-03-21T04:34:57;14.35;;;7.80;;
75716;SDS011;64333;50.138;14.332;2023-03-21T04:37:23;14.20;;;7.37;;
75716;SDS011;64333;50.138;14.332;2023-03-21T04:39:48;12.77;;;8.23;;
75716;SDS011;64333;50.138;14.332;2023-03-21T04:42:15;13.77;;;7.57;;
75716;SDS011;64333;50.138;14.332;2023-03-21T04:44:42;14.45;;;8.07;;
75716;SDS011;64333;50.138;14.332;2023-03-21T04:47:07;14.52;;;8.07;;
75716;SDS011;64333;50.138;14.332;2023-03-21T04:49:33;14.83;;;7.47;;
75716;SDS011;64333;50.138;14.332;2023-03-21T04:51:58;13.10;;;7.80;;
75716;SDS011;64333;50.138;14.332;2023-03-21T04:54:23;12.65;;;7.20;;
75716;SDS011;64333;50.138;14.332;2023-03-21T04:56:48;13.07;;;7.20;;
75716;SDS011;64333;50.138;14.332;2023-03-21T04:59:16;14.23;;;7.65;;
75716;SDS011;64333;50.138;14.332;2023-03-21T05:01:41;12.77;;;7.53;;
75716;SDS011;64333;50.138;14.332;2023-03-21T05:04:08;16.02;;;7.30;;
75716;SDS011;64333;50.138;14.332;2023-03-21T05:06:33;13.18;;;7.90;;
75716;SDS011;64333;50.138;14.332;2023-03-21T05:09:00;11.70;;;7.10;;
75716;SDS011;64333;50.138;14.332;2023-03-21T05:13:57;11.25;;;6.43;;
75716;SDS011;64333;50.138;14.332;2023-03-21T05:16:23;13.27;;;7.15;;
75716;SDS011;64333;50.138;14.332;2023-03-21T05:18:51;13.43;;;8.02;;
75716;SDS011;64333;50.138;14.332;2023-03-21T05:21:16;12.30;;;7.05;;
75716;SDS011;64333;50.138;14.332;2023-03-21T05:23:42;12.13;;;6.75;;
75716;SDS011;64333;50.138;14.332;2023-03-21T05:26:08;15.07;;;7.73;;
75716;SDS011;64333;50.138;14.332;2023-03-21T05:28:33;12.32;;;7.35;;
75716;SDS011;64333;50.138;14.332;2023-03-21T05:31:01;11.93;;;7.63;;
75716;SDS011;64333;50.138;14.332;2023-03-21T05:33:26;13.07;;;7.60;;
75716;SDS011;64333;50.138;14.332;2023-03-21T05:35:51;11.67;;;7.23;;
75716;SDS011;64333;50.138;14.332;2023-03-21T05:38:17;13.90;;;8.00;;
75716;SDS011;64333;50.138;14.332;2023-03-21T05:40:45;12.20;;;6.97;;
75716;SDS011;64333;50.138;14.332;2023-03-21T05:43:11;15.50;;;8.35;;
75716;SDS011;64333;50.138;14.332;2023-03-21T05:45:36;13.20;;;7.20;;
75716;SDS011;64333;50.138;14.332;2023-03-21T05:48:01;12.20;;;7.07;;
75716;SDS011;64333;50.138;14.332;2023-03-21T05:50:26;13.83;;;7.57;;
75716;SDS011;64333;50.138;14.332;2023-03-21T05:52:52;12.75;;;7.13;;
75716;SDS011;64333;50.138;14.332;2023-03-21T05:55:17;12.83;;;7.80;;
75716;SDS011;64333;50.138;14.332;2023-03-21T05:57:42;12.18;;;6.70;;
75716;SDS011;64333;50.138;14.332;2023-03-21T06:00:08;10.37;;;6.60;;
75716;SDS011;64333;50.138;14.332;2023-03-21T06:02:33;12.05;;;7.00;;
75716;SDS011;64333;50.138;14.332;2023-03-21T06:04:58;11.40;;;6.53;;
75716;SDS011;64333;50.138;14.332;2023-03-21T06:07:24;11.88;;;6.85;;
75716;SDS011;64333;50.138;14.332;2023-03-21T06:09:49;11.90;;;7.05;;
75716;SDS011;64333;50.138;14.332;2023-03-21T06:12:14;11.20;;;6.97;;
75716;SDS011;64333;50.138;14.332;2023-03-21T06:14:40;11.98;;;6.90;;
75716;SDS011;64333;50.138;14.332;2023-03-21T06:17:05;13.23;;;7.20;;
75716;SDS011;64333;50.138;14.332;2023-03-21T06:19:30;11.47;;;6.83;;
75716;SDS011;64333;50.138;14.332;2023-03-21T06:21:56;12.10;;;6.70;;
75716;SDS011;64333;50.138;14.332;2023-03-21T06:24:21;12.40;;;6.53;;
75716;SDS011;64333;50.138;14.332;2023-03-21T06:26:46;16.03;;;7.73;;
75716;SDS011;64333;50.138;14.332;2023-03-21T06:29:12;13.00;;;7.43;;
75716;SDS011;64333;50.138;14.332;2023-03-21T06:31:37;16.35;;;7.75;;
75716;SDS011;64333;50.138;14.332;2023-03-21T06:34:03;10.63;;;7.23;;
75716;SDS011;64333;50.138;14.332;2023-03-21T06:36:28;12.50;;;6.77;;
75716;SDS011;64333;50.138;14.332;2023-03-21T06:38:53;14.57;;;7.13;;
75716;SDS011;64333;50.138;14.332;2023-03-21T06:41:18;11.40;;;7.47;;
75716;SDS011;64333;50.138;14.332;2023-03-21T06:43:43;14.80;;;7.47;;
75716;SDS011;64333;50.138;14.332;2023-03-21T06:46:09;12.00;;;7.80;;
75716;SDS011;64333;50.138;14.332;2023-03-21T06:48:34;11.48;;;6.88;;
75716;SDS011;64333;50.138;14.332;2023-03-21T06:51:01;13.52;;;7.57;;
75716;SDS011;64333;50.138;14.332;2023-03-21T06:53:26;13.90;;;7.07;;
75716;SDS011;64333;50.138;14.332;2023-03-21T06:55:52;12.63;;;7.43;;
75716;SDS011;64333;50.138;14.332;2023-03-21T06:58:18;15.15;;;7.53;;
75716;SDS011;64333;50.138;14.332;2023-03-21T07:00:43;12.48;;;7.50;;
75716;SDS011;64333;50.138;14.332;2023-03-21T07:03:10;14.27;;;7.90;;
75716;SDS011;64333;50.138;14.332;2023-03-21T07:05:36;15.30;;;8.85;;
75716;SDS011;64333;50.138;14.332;2023-03-21T07:08:01;12.77;;;7.07;;
75716;SDS011;64333;50.138;14.332;2023-03-21T07:10:26;12.45;;;7.22;;
75716;SDS011;64333;50.138;14.332;2023-03-21T07:12:52;10.40;;;6.93;;
75716;SDS011;64333;50.138;14.332;2023-03-21T07:15:17;11.33;;;6.93;;
75716;SDS011;64333;50.138;14.332;2023-03-21T07:17:42;12.82;;;6.78;;
75716;SDS011;64333;50.138;14.332;2023-03-21T07:20:08;10.60;;;5.63;;
75716;SDS011;64333;50.138;14.332;2023-03-21T07:22:34;8.52;;;5.93;;
75716;SDS011;64333;50.138;14.332;2023-03-21T07:24:59;9.63;;;6.22;;
75716;SDS011;64333;50.138;14.332;2023-03-21T07:27:24;10.27;;;6.17;;
75716;SDS011;64333;50.138;14.332;2023-03-21T07:29:49;9.73;;;5.80;;
75716;SDS011;64333;50.138;14.332;2023-03-21T07:32:15;8.30;;;4.80;;
75716;SDS011;64333;50.138;14.332;2023-03-21T07:34:40;7.82;;;4.85;;
75716;SDS011;64333;50.138;14.332;2023-03-21T07:37:06;10.13;;;5.53;;
75716;SDS011;64333;50.138;14.332;2023-03-21T07:39:31;8.67;;;4.40;;
75716;SDS011;64333;50.138;14.332;2023-03-21T07:41:57;9.68;;;5.18;;
75716;SDS011;64333;50.138;14.332;2023-03-21T07:44:22;12.30;;;5.75;;
75716;SDS011;64333;50.138;14.332;2023-03-21T07:46:48;10.60;;;5.90;;
75716;SDS011;64333;50.138;14.332;2023-03-21T07:49:13;10.10;;;6.73;;
75716;SDS011;64333;50.138;14.332;2023-03-21T07:51:38;12.97;;;7.00;;
75716;SDS011;64333;50.138;14.332;2023-03-21T07:54:03;13.03;;;7.60;;
75716;SDS011;64333;50.138;14.332;2023-03-21T07:56:29;12.27;;;6.97;;
75716;SDS011;64333;50.138;14.332;2023-03-21T07:58:54;10.32;;;6.63;;
75716;SDS011;64333;50.138;14.332;2023-03-21T08:01:19;11.50;;;6.70;;
75716;SDS011;64333;50.138;14.332;2023-03-21T08:03:45;11.82;;;6.35;;
75716;SDS011;64333;50.138;14.332;2023-03-21T08:06:12;11.68;;;7.43;;
75716;SDS011;64333;50.138;14.332;2023-03-21T08:08:37;15.45;;;7.43;;
75716;SDS011;64333;50.138;14.332;2023-03-21T08:11:02;9.27;;;6.23;;
75716;SDS011;64333;50.138;14.332;2023-03-21T08:13:27;12.25;;;7.13;;
75716;SDS011;64333;50.138;14.332;2023-03-21T08:15:53;9.93;;;5.77;;
75716;SDS011;64333;50.138;14.332;2023-03-21T08:18:18;10.00;;;6.47;;
75716;SDS011;64333;50.138;14.332;2023-03-21T08:20:43;11.17;;;6.50;;
75716;SDS011;64333;50.138;14.332;2023-03-21T08:23:08;12.43;;;6.07;;
75716;SDS011;64333;50.138;14.332;2023-03-21T08:25:33;8.30;;;5.93;;
75716;SDS011;64333;50.138;14.332;2023-03-21T08:27:59;12.70;;;6.35;;
75716;SDS011;64333;50.138;14.332;2023-03-21T08:30:25;8.80;;;5.50;;
75716;SDS011;64333;50.138;14.332;2023-03-21T08:32:54;8.75;;;5.85;;
75716;SDS011;64333;50.138;14.332;2023-03-21T08:35:19;10.38;;;5.88;;
75716;SDS011;64333;50.138;14.332;2023-03-21T08:37:45;9.15;;;5.25;;
75716;SDS011;64333;50.138;14.332;2023-03-21T08:40:11;7.23;;;4.63;;
75716;SDS011;64333;50.138;14.332;2023-03-21T08:42:37;5.82;;;4.50;;
75716;SDS011;64333;50.138;14.332;2023-03-21T08:45:03;8.23;;;5.43;;
75716;SDS011;64333;50.138;14.332;2023-03-21T08:47:29;7.53;;;4.18;;
75716;SDS011;64333;50.138;14.332;2023-03-21T08:49:54;6.07;;;4.15;;
75716;SDS011;64333;50.138;14.332;2023-03-21T08:52:19;4.85;;;3.63;;
75716;SDS011;64333;50.138;14.332;2023-03-21T08:54:45;7.15;;;3.92;;
75716;SDS011;64333;50.138;14.332;2023-03-21T08:57:10;4.30;;;3.00;;
75716;SDS011;64333;50.138;14.332;2023-03-21T08:59:36;5.07;;;3.70;;
75716;SDS011;64333;50.138;14.332;2023-03-21T09:02:01;4.47;;;3.40;;
75716;SDS011;64333;50.138;14.332;2023-03-21T09:04:27;5.18;;;3.97;;
75716;SDS011;64333;50.138;14.332;2023-03-21T09:06:54;4.70;;;3.30;;
75716;SDS011;64333;50.138;14.332;2023-03-21T09:09:20;4.25;;;2.72;;
75716;SDS011;64333;50.138;14.332;2023-03-21T09:11:45;5.03;;;3.70;;
75716;SDS011;64333;50.138;14.332;2023-03-21T09:14:10;5.57;;;3.50;;
75716;SDS011;64333;50.138;14.332;2023-03-21T09:16:35;4.30;;;3.03;;
75716;SDS011;64333;50.138;14.332;2023-03-21T09:19:01;3.90;;;2.87;;
75716;SDS011;64333;50.138;14.332;2023-03-21T09:21:28;4.55;;;3.28;;
75716;SDS011;64333;50.138;14.332;2023-03-21T09:23:54;3.97;;;2.60;;
75716;SDS011;64333;50.138;14.332;2023-03-21T09:26:23;4.65;;;3.13;;
75716;SDS011;64333;50.138;14.332;2023-03-21T09:28:48;4.18;;;2.95;;
75716;SDS011;64333;50.138;14.332;2023-03-21T09:31:14;6.07;;;2.88;;
75716;SDS011;64333;50.138;14.332;2023-03-21T09:33:45;7.25;;;3.53;;
75716;SDS011;64333;50.138;14.332;2023-03-21T09:36:11;4.82;;;3.08;;
75716;SDS011;64333;50.138;14.332;2023-03-21T09:38:41;4.95;;;2.97;;
75716;SDS011;64333;50.138;14.332;2023-03-21T09:43:53;4.80;;;3.75;;
75716;SDS011;64333;50.138;14.332;2023-03-21T09:49:05;6.57;;;3.90;;
75716;SDS011;64333;50.138;14.332;2023-03-21T09:51:33;4.40;;;3.30;;
75716;SDS011;64333;50.138;14.332;2023-03-21T09:54:02;4.45;;;2.90;;
75716;SDS011;64333;50.138;14.332;2023-03-21T09:56:30;3.28;;;2.97;;
75716;SDS011;64333;50.138;14.332;2023-03-21T09:58:57;4.15;;;3.47;;
75716;SDS011;64333;50.138;14.332;2023-03-21T10:01:26;4.88;;;2.85;;
75716;SDS011;64333;50.138;14.332;2023-03-21T10:03:56;3.58;;;2.70;;
75716;SDS011;64333;50.138;14.332;2023-03-21T10:06:24;6.20;;;4.00;;
75716;SDS011;64333;50.138;14.332;2023-03-21T10:11:23;3.95;;;2.75;;
75716;SDS011;64333;50.138;14.332;2023-03-21T10:16:15;4.93;;;3.50;;
75716;SDS011;64333;50.138;14.332;2023-03-21T10:18:42;3.53;;;2.65;;
75716;SDS011;64333;50.138;14.332;2023-03-21T10:21:10;4.28;;;3.22;;
75716;SDS011;64333;50.138;14.332;2023-03-21T10:23:40;4.80;;;3.20;;
75716;SDS011;64333;50.138;14.332;2023-03-21T10:26:06;4.17;;;2.90;;
75716;SDS011;64333;50.138;14.332;2023-03-21T10:28:34;4.22;;;3.25;;
75716;SDS011;64333;50.138;14.332;2023-03-21T10:31:09;4.45;;;3.55;;
75716;SDS011;64333;50.138;14.332;2023-03-21T10:33:40;4.22;;;2.50;;
75716;SDS011;64333;50.138;14.332;2023-03-21T10:36:08;3.90;;;2.88;;
75716;SDS011;64333;50.138;14.332;2023-03-21T10:38:34;4.78;;;2.90;;
75716;SDS011;64333;50.138;14.332;2023-03-21T10:41:02;4.90;;;2.85;;
75716;SDS011;64333;50.138;14.332;2023-03-21T10:45:54;4.38;;;3.00;;
75716;SDS011;64333;50.138;14.332;2023-03-21T10:48:20;4.60;;;3.15;;
75716;SDS011;64333;50.138;14.332;2023-03-21T10:50:49;3.65;;;2.90;;
75716;SDS011;64333;50.138;14.332;2023-03-21T10:53:22;3.78;;;2.88;;
75716;SDS011;64333;50.138;14.332;2023-03-21T10:55:51;3.88;;;3.30;;
75716;SDS011;64333;50.138;14.332;2023-03-21T10:58:19;4.88;;;3.58;;
75716;SDS011;64333;50.138;14.332;2023-03-21T11:00:53;2.47;;;1.70;;
75716;SDS011;64333;50.138;14.332;2023-03-21T11:03:30;2.55;;;1.90;;
75716;SDS011;64333;50.138;14.332;2023-03-21T11:06:06;2.50;;;2.30;;
75716;SDS011;64333;50.138;14.332;2023-03-21T11:11:02;3.50;;;2.25;;
75716;SDS011;64333;50.138;14.332;2023-03-21T11:13:41;3.13;;;1.95;;
75716;SDS011;64333;50.138;14.332;2023-03-21T11:16:23;2.22;;;1.80;;
75716;SDS011;64333;50.138;14.332;2023-03-21T11:18:49;4.03;;;2.33;;
75716;SDS011;64333;50.138;14.332;2023-03-21T11:21:15;4.68;;;2.45;;
75716;SDS011;64333;50.138;14.332;2023-03-21T11:23:42;2.75;;;2.22;;
75716;SDS011;64333;50.138;14.332;2023-03-21T11:26:11;5.38;;;3.28;;
75716;SDS011;64333;50.138;14.332;2023-03-21T11:28:40;3.88;;;2.17;;
75716;SDS011;64333;50.138;14.332;2023-03-21T11:31:06;3.53;;;2.33;;
75716;SDS011;64333;50.138;14.332;2023-03-21T11:33:43;4.18;;;2.97;;
75716;SDS011;64333;50.138;14.332;2023-03-21T11:38:49;3.72;;;2.80;;
75716;SDS011;64333;50.138;14.332;2023-03-21T11:41:26;4.03;;;3.10;;
75716;SDS011;64333;50.138;14.332;2023-03-21T11:43:52;2.92;;;2.30;;
75716;SDS011;64333;50.138;14.332;2023-03-21T11:46:21;3.92;;;2.63;;
75716;SDS011;64333;50.138;14.332;2023-03-21T11:48:47;3.25;;;2.53;;
75716;SDS011;64333;50.138;14.332;2023-03-21T11:56:52;3.47;;;2.50;;
75716;SDS011;64333;50.138;14.332;2023-03-21T12:09:37;3.47;;;2.67;;
75716;SDS011;64333;50.138;14.332;2023-03-21T12:14:33;2.93;;;2.33;;
75716;SDS011;64333;50.138;14.332;2023-03-21T12:27:29;5.17;;;2.80;;
75716;SDS011;64333;50.138;14.332;2023-03-21T12:32:45;4.75;;;2.97;;
75716;SDS011;64333;50.138;14.332;2023-03-21T12:38:07;2.92;;;2.45;;
75716;SDS011;64333;50.138;14.332;2023-03-21T12:43:30;4.38;;;2.88;;
75716;SDS011;64333;50.138;14.332;2023-03-21T12:46:02;3.25;;;2.55;;
75716;SDS011;64333;50.138;14.332;2023-03-21T12:48:33;6.18;;;3.00;;
75716;SDS011;64333;50.138;14.332;2023-03-21T12:50:59;3.45;;;2.60;;
75716;SDS011;64333;50.138;14.332;2023-03-21T12:55:52;3.15;;;2.85;;
75716;SDS011;64333;50.138;14.332;2023-03-21T12:58:19;3.17;;;2.70;;
75716;SDS011;64333;50.138;14.332;2023-03-21T13:03:31;4.03;;;2.83;;
75716;SDS011;64333;50.138;14.332;2023-03-21T13:06:00;3.83;;;2.83;;
75716;SDS011;64333;50.138;14.332;2023-03-21T13:08:34;2.70;;;2.50;;
75716;SDS011;64333;50.138;14.332;2023-03-21T13:11:01;3.08;;;2.75;;
75716;SDS011;64333;50.138;14.332;2023-03-21T13:13:38;3.17;;;2.72;;
75716;SDS011;64333;50.138;14.332;2023-03-21T13:16:09;3.17;;;2.88;;
75716;SDS011;64333;50.138;14.332;2023-03-21T13:21:18;3.45;;;2.80;;
75716;SDS011;64333;50.138;14.332;2023-03-21T13:23:58;3.42;;;2.83;;
75716;SDS011;64333;50.138;14.332;2023-03-21T13:26:35;3.70;;;2.88;;
75716;SDS011;64333;50.138;14.332;2023-03-21T13:29:01;3.90;;;3.08;;
75716;SDS011;64333;50.138;14.332;2023-03-21T13:31:35;3.40;;;2.80;;
75716;SDS011;64333;50.138;14.332;2023-03-21T13:34:02;3.08;;;2.42;;
75716;SDS011;64333;50.138;14.332;2023-03-21T13:36:28;3.40;;;2.70;;
75716;SDS011;64333;50.138;14.332;2023-03-21T13:38:58;3.33;;;2.80;;
75716;SDS011;64333;50.138;14.332;2023-03-21T13:41:37;3.40;;;2.83;;
75716;SDS011;64333;50.138;14.332;2023-03-21T13:51:39;3.40;;;3.08;;
75716;SDS011;64333;50.138;14.332;2023-03-21T13:56:52;4.07;;;2.83;;
75716;SDS011;64333;50.138;14.332;2023-03-21T14:04:41;2.50;;;2.30;;
75716;SDS011;64333;50.138;14.332;2023-03-21T14:07:09;4.55;;;2.92;;
75716;SDS011;64333;50.138;14.332;2023-03-21T14:09:37;4.45;;;2.75;;
75716;SDS011;64333;50.138;14.332;2023-03-21T14:12:04;4.60;;;2.80;;
75716;SDS011;64333;50.138;14.332;2023-03-21T14:14:37;3.72;;;2.40;;
75716;SDS011;64333;50.138;14.332;2023-03-21T14:19:59;5.40;;;2.97;;
75716;SDS011;64333;50.138;14.332;2023-03-21T14:22:25;5.80;;;2.63;;
75716;SDS011;64333;50.138;14.332;2023-03-21T14:24:58;5.60;;;3.00;;
75716;SDS011;64333;50.138;14.332;2023-03-21T14:27:25;6.35;;;3.30;;
75716;SDS011;64333;50.138;14.332;2023-03-21T14:29:51;4.93;;;3.17;;
75716;SDS011;64333;50.138;14.332;2023-03-21T14:32:24;4.10;;;3.42;;
75716;SDS011;64333;50.138;14.332;2023-03-21T14:34:50;6.00;;;3.05;;
75716;SDS011;64333;50.138;14.332;2023-03-21T14:37:32;3.10;;;2.75;;
75716;SDS011;64333;50.138;14.332;2023-03-21T14:40:03;4.90;;;2.58;;
75716;SDS011;64333;50.138;14.332;2023-03-21T14:42:33;4.90;;;3.22;;
75716;SDS011;64333;50.138;14.332;2023-03-21T14:44:59;4.10;;;2.70;;
75716;SDS011;64333;50.138;14.332;2023-03-21T14:47:27;6.57;;;3.10;;
75716;SDS011;64333;50.138;14.332;2023-03-21T14:49:52;4.72;;;2.78;;
75716;SDS011;64333;50.138;14.332;2023-03-21T14:52:23;4.43;;;2.88;;
75716;SDS011;64333;50.138;14.332;2023-03-21T14:54:48;6.32;;;3.30;;
75716;SDS011;64333;50.138;14.332;2023-03-21T14:57:17;4.10;;;2.92;;
75716;SDS011;64333;50.138;14.332;2023-03-21T14:59:43;4.95;;;3.53;;
75716;SDS011;64333;50.138;14.332;2023-03-21T15:02:33;4.97;;;3.10;;
75716;SDS011;64333;50.138;14.332;2023-03-21T15:04:57;3.80;;;3.15;;
75716;SDS011;64333;50.138;14.332;2023-03-21T15:07:23;5.28;;;2.95;;
75716;SDS011;64333;50.138;14.332;2023-03-21T15:09:57;4.68;;;2.83;;
75716;SDS011;64333;50.138;14.332;2023-03-21T15:12:22;4.00;;;2.75;;
75716;SDS011;64333;50.138;14.332;2023-03-21T15:14:48;4.38;;;3.25;;
75716;SDS011;64333;50.138;14.332;2023-03-21T15:17:13;5.72;;;2.95;;
75716;SDS011;64333;50.138;14.332;2023-03-21T15:19:39;3.42;;;2.65;;
75716;SDS011;64333;50.138;14.332;2023-03-21T15:24:46;3.65;;;2.60;;
75716;SDS011;64333;50.138;14.332;2023-03-21T15:27:15;3.65;;;2.50;;
75716;SDS011;64333;50.138;14.332;2023-03-21T15:29:41;3.28;;;2.50;;
75716;SDS011;64333;50.138;14.332;2023-03-21T15:32:11;2.83;;;2.40;;
75716;SDS011;64333;50.138;14.332;2023-03-21T15:34:37;4.35;;;2.78;;
75716;SDS011;64333;50.138;14.332;2023-03-21T15:37:04;3.72;;;2.42;;
75716;SDS011;64333;50.138;14.332;2023-03-21T15:39:30;4.18;;;2.60;;
75716;SDS011;64333;50.138;14.332;2023-03-21T15:42:18;2.88;;;2.58;;
75716;SDS011;64333;50.138;14.332;2023-03-21T15:44:44;4.78;;;3.00;;
75716;SDS011;64333;50.138;14.332;2023-03-21T15:47:13;3.47;;;3.00;;
75716;SDS011;64333;50.138;14.332;2023-03-21T15:49:39;5.55;;;3.10;;
75716;SDS011;64333;50.138;14.332;2023-03-21T15:52:12;3.88;;;2.53;;
75716;SDS011;64333;50.138;14.332;2023-03-21T15:57:16;4.07;;;2.63;;
75716;SDS011;64333;50.138;14.332;2023-03-21T15:59:43;4.43;;;2.70;;
75716;SDS011;64333;50.138;14.332;2023-03-21T16:02:16;3.53;;;2.45;;
75716;SDS011;64333;50.138;14.332;2023-03-21T16:04:59;4.93;;;3.13;;
75716;SDS011;64333;50.138;14.332;2023-03-21T16:07:25;8.13;;;3.08;;
75716;SDS011;64333;50.138;14.332;2023-03-21T16:09:55;4.93;;;3.20;;
75716;SDS011;64333;50.138;14.332;2023-03-21T16:12:21;4.00;;;3.13;;
75716;SDS011;64333;50.138;14.332;2023-03-21T16:14:48;5.30;;;4.00;;
75716;SDS011;64333;50.138;14.332;2023-03-21T16:17:34;5.05;;;2.92;;
75716;SDS011;64333;50.138;14.332;2023-03-21T16:20:26;4.68;;;2.47;;
75716;SDS011;64333;50.138;14.332;2023-03-21T16:22:51;3.90;;;2.65;;
75716;SDS011;64333;50.138;14.332;2023-03-21T16:25:17;4.43;;;3.23;;
75716;SDS011;64333;50.138;14.332;2023-03-21T16:27:42;3.85;;;3.05;;
75716;SDS011;64333;50.138;14.332;2023-03-21T16:30:10;5.07;;;3.28;;
75716;SDS011;64333;50.138;14.332;2023-03-21T16:32:36;3.30;;;2.67;;
75716;SDS011;64333;50.138;14.332;2023-03-21T16:35:01;4.33;;;3.33;;
75716;SDS011;64333;50.138;14.332;2023-03-21T16:37:26;3.28;;;2.70;;